East Liberty, Pennsylvania
Current Conditions -  °F | °C
As of 8:53 AM on Monday 24 Nov 2014 (Local Time) from KAGC Reporting Station
Few Clouds Few Clouds  
Wind Chill: 62°   Ceiling: Unl
Heat Index: 62°   Visibility: 10mi
Dew Point: 48°   Wind: 16mph
Humidity: 60%   Direction: 180°S
Pressure: 29.45"   Gusts: 24mph
Location:  40.4715°N, 79.9138°W
Report Text: KAGC 241353Z 18014G21KT 10SM FEW060 17/09 A2945 RMK AO2 SLP972 T01670089
Loading
Personal Weather Stations






























Interactive Weather Map New forecast layout! Learn more

10-Day Weather Forecast

Advertisements
Track Severe Weather on mobile